Time;durP1;ratioP1;P1;durP2;ratioP2;P2;SDS_P1;SDS_P2;PMS_P1;PMS_P2;Temp;Humidity;BMP_temperature;BMP_pressure;BME280_temperature;BME280_humidity;BME280_pressure;Samples;Min_cycle;Max_cycle;Signal;HPM_P1;HPM_P2
2022/10/23 00:00:13;;;;;;;2.70;2.00;;;10.30;99.90;;;;;;5068534;28;20315;-88
2022/10/23 00:02:40;;;;;;;7.03;2.40;;;10.30;99.90;;;;;;5070567;28;20239;-86
2022/10/23 00:05:08;;;;;;;3.38;2.10;;;10.30;99.90;;;;;;5073229;28;20217;-87
2022/10/23 00:07:42;;;;;;;3.80;2.20;;;10.20;99.90;;;;;;5071913;28;20278;-86
2022/10/23 00:10:16;;;;;;;3.78;1.83;;;10.20;99.90;;;;;;5073217;28;20272;-86
2022/10/23 00:12:47;;;;;;;4.80;1.67;;;10.20;99.90;;;;;;5075533;28;20287;-86
2022/10/23 00:15:21;;;;;;;3.72;1.85;;;10.20;99.90;;;;;;5068472;28;20293;-86
2022/10/23 00:18:09;;;;;;;3.63;1.90;;;10.10;99.90;;;;;;5069481;28;20196;-87
2022/10/23 00:20:40;;;;;;;2.75;1.63;;;10.10;99.90;;;;;;5066984;28;20221;-86
2022/10/23 00:23:35;;;;;;;4.28;1.83;;;10.20;99.90;;;;;;5072700;28;20203;-86
2022/10/23 00:29:40;;;;;;;4.80;1.73;;;10.00;99.90;;;;;;5073600;28;20206;-86
2022/10/23 00:32:16;;;;;;;1.95;1.75;;;9.90;99.90;;;;;;5076518;28;20236;-85
2022/10/23 00:34:43;;;;;;;1.77;1.60;;;10.00;99.90;;;;;;5076976;28;20260;-86
2022/10/23 00:37:10;;;;;;;2.40;1.75;;;9.90;99.90;;;;;;5058836;28;20620;-85
2022/10/23 00:40:06;;;;;;;2.47;1.50;;;9.90;99.90;;;;;;5072852;28;20308;-85
2022/10/23 00:42:34;;;;;;;6.55;2.00;;;9.80;99.90;;;;;;5058778;28;20633;-86
2022/10/23 00:48:34;;;;;;;5.32;1.70;;;9.70;99.90;;;;;;5073937;28;20651;-86
2022/10/23 00:55:15;;;;;;;1.73;1.60;;;9.70;99.90;;;;;;5075374;28;20325;-87
2022/10/23 01:01:33;;;;;;;1.90;1.42;;;9.70;99.90;;;;;;5073842;28;20261;-85
2022/10/23 01:04:23;;;;;;;4.03;1.55;;;9.70;99.90;;;;;;5072485;28;20209;-86
2022/10/23 01:07:11;;;;;;;1.40;1.30;;;9.70;99.90;;;;;;5077931;28;20281;-86
2022/10/23 01:13:51;;;;;;;3.30;1.33;;;9.60;99.90;;;;;;5075499;28;20184;-85
2022/10/23 01:16:47;;;;;;;3.88;1.60;;;9.60;99.90;;;;;;5075273;28;20272;-86
2022/10/23 01:19:37;;;;;;;1.65;1.30;;;9.60;99.90;;;;;;5071043;28;20289;-86
2022/10/23 01:22:57;;;;;;;2.63;1.30;;;9.60;99.90;;;;;;5066900;28;20221;-85
2022/10/23 01:25:50;;;;;;;1.77;1.38;;;9.70;99.90;;;;;;5077247;28;20275;-86
2022/10/23 01:28:26;;;;;;;1.58;1.40;;;9.60;99.90;;;;;;5076108;28;20201;-86
2022/10/23 01:30:56;;;;;;;1.30;1.20;;;9.60;99.90;;;;;;5078722;28;20212;-86
2022/10/23 01:33:27;;;;;;;2.50;1.38;;;9.60;99.90;;;;;;5074138;28;20229;-86
2022/10/23 01:36:02;;;;;;;2.75;1.42;;;9.50;99.90;;;;;;5074622;28;20602;-86
2022/10/23 01:38:59;;;;;;;2.38;1.40;;;9.40;99.90;;;;;;5074520;28;20270;-86
2022/10/23 01:42:15;;;;;;;3.65;1.30;;;9.30;99.90;;;;;;5069886;28;20308;-86
2022/10/23 01:44:59;;;;;;;3.47;1.33;;;9.30;99.90;;;;;;5071795;28;20292;-87
2022/10/23 01:47:32;;;;;;;3.90;1.50;;;9.30;99.90;;;;;;5069093;28;20202;-86
2022/10/23 01:50:18;;;;;;;3.40;1.02;;;9.30;99.90;;;;;;5073014;28;20229;-86
2022/10/23 01:52:52;;;;;;;2.17;1.40;;;9.20;99.90;;;;;;5070089;28;20279;-86
2022/10/23 01:55:46;;;;;;;1.98;1.58;;;9.30;99.90;;;;;;5076349;28;20189;-85
2022/10/23 01:58:15;;;;;;;2.33;1.35;;;9.30;99.90;;;;;;5069136;28;20283;-86
2022/10/23 02:01:03;;;;;;;3.42;1.50;;;9.30;99.90;;;;;;5077946;28;20209;-85
2022/10/23 02:03:35;;;;;;;1.98;1.25;;;9.30;99.90;;;;;;5071433;28;20288;-87
2022/10/23 02:06:02;;;;;;;5.55;1.10;;;9.30;99.90;;;;;;5069014;28;20301;-87
2022/10/23 02:08:51;;;;;;;2.72;1.30;;;9.20;99.90;;;;;;5069586;28;20199;-85
2022/10/23 02:11:22;;;;;;;1.88;1.48;;;9.20;99.90;;;;;;5069412;28;20563;-86
2022/10/23 02:13:56;;;;;;;1.50;1.40;;;9.20;99.90;;;;;;5071417;28;20223;-86
2022/10/23 02:16:31;;;;;;;1.52;1.42;;;9.20;99.90;;;;;;5070648;28;20283;-86
2022/10/23 02:19:09;;;;;;;2.78;1.40;;;9.20;99.90;;;;;;5064521;28;20188;-87
2022/10/23 02:21:51;;;;;;;1.38;1.27;;;9.20;99.90;;;;;;5069144;28;20299;-86
2022/10/23 02:24:45;;;;;;;1.40;1.30;;;9.20;99.90;;;;;;5069159;28;20259;-85
2022/10/23 02:27:20;;;;;;;1.85;1.35;;;9.20;99.90;;;;;;5077877;28;20280;-85
2022/10/23 02:29:51;;;;;;;1.17;1.08;;;9.20;99.90;;;;;;5063340;28;20281;-87
2022/10/23 02:32:22;;;;;;;1.42;1.33;;;9.20;99.90;;;;;;5068704;28;20225;-86
2022/10/23 02:34:52;;;;;;;2.13;1.70;;;9.20;99.90;;;;;;5072591;28;20196;-87
2022/10/23 02:37:34;;;;;;;2.10;1.40;;;9.10;99.90;;;;;;5062372;28;20696;-86
2022/10/23 02:40:05;;;;;;;3.80;1.40;;;9.10;99.90;;;;;;5061418;28;20212;-86
2022/10/23 02:43:10;;;;;;;1.95;1.40;;;9.10;99.90;;;;;;5064174;28;20284;-87
2022/10/23 02:45:47;;;;;;;2.92;1.20;;;9.10;99.90;;;;;;5069728;28;20728;-87
2022/10/23 02:48:29;;;;;;;3.45;1.30;;;9.20;99.90;;;;;;5073651;28;20219;-87
2022/10/23 02:51:03;;;;;;;1.40;1.30;;;9.20;99.90;;;;;;5070972;28;20211;-89
2022/10/23 02:53:41;;;;;;;2.00;1.73;;;9.20;99.90;;;;;;5060788;28;20204;-87
2022/10/23 02:56:20;;;;;;;2.47;1.50;;;9.10;99.90;;;;;;5062417;28;20712;-86
2022/10/23 02:58:55;;;;;;;1.90;1.55;;;9.00;99.90;;;;;;5069876;28;20804;-87
2022/10/23 03:01:34;;;;;;;2.58;1.60;;;9.00;99.90;;;;;;5064015;28;20391;-86
2022/10/23 03:04:06;;;;;;;1.70;1.60;;;8.90;99.90;;;;;;5059206;28;20284;-87
2022/10/23 03:06:40;;;;;;;2.53;1.48;;;9.00;99.90;;;;;;5071739;28;20248;-86
2022/10/23 03:09:09;;;;;;;1.48;1.38;;;9.00;99.90;;;;;;5064732;28;20268;-86
2022/10/23 03:11:40;;;;;;;1.60;1.40;;;9.10;99.90;;;;;;5061550;28;20714;-86
2022/10/23 03:14:11;;;;;;;1.80;1.58;;;9.00;99.90;;;;;;5069763;28;20272;-87
2022/10/23 03:16:38;;;;;;;3.90;1.40;;;9.00;99.90;;;;;;5069575;28;20268;-86
2022/10/23 03:19:06;;;;;;;3.83;1.50;;;8.90;99.90;;;;;;5068274;28;20190;-86
2022/10/23 03:21:33;;;;;;;2.83;1.40;;;8.90;99.90;;;;;;5067159;28;20231;-87
2022/10/23 03:24:00;;;;;;;5.60;1.38;;;8.90;99.90;;;;;;5068453;28;20704;-87
2022/10/23 03:26:27;;;;;;;1.58;1.42;;;8.80;99.90;;;;;;5070319;28;20205;-86
2022/10/23 03:28:58;;;;;;;1.95;1.40;;;8.80;99.90;;;;;;5064555;28;20221;-87
2022/10/23 03:31:25;;;;;;;4.10;1.45;;;8.80;99.90;;;;;;5063814;28;20284;-87
2022/10/23 03:33:52;;;;;;;5.75;1.30;;;8.80;99.90;;;;;;5065394;28;20634;-86
2022/10/23 03:36:23;;;;;;;2.75;1.30;;;8.80;99.90;;;;;;5067503;28;20615;-89
2022/10/23 03:38:51;;;;;;;1.40;1.30;;;8.70;99.90;;;;;;5067757;28;20292;-87
2022/10/23 03:41:22;;;;;;;1.58;1.30;;;8.80;99.90;;;;;;5063118;28;20225;-87
2022/10/23 03:43:49;;;;;;;3.83;1.45;;;8.80;99.90;;;;;;5059842;28;20335;-87
2022/10/23 03:46:16;;;;;;;1.50;1.33;;;8.80;99.90;;;;;;5066477;28;20657;-86
2022/10/23 03:48:42;;;;;;;2.55;1.30;;;8.70;99.90;;;;;;5070118;28;20288;-87
2022/10/23 03:51:09;;;;;;;4.70;1.50;;;8.80;99.90;;;;;;5060293;28;20214;-86
2022/10/23 03:53:38;;;;;;;1.52;1.25;;;8.80;99.90;;;;;;5068011;28;20268;-86
2022/10/23 03:56:05;;;;;;;3.70;1.20;;;8.70;99.90;;;;;;5070985;28;20201;-87
2022/10/23 03:58:32;;;;;;;2.85;1.30;;;8.70;99.90;;;;;;5064211;28;20579;-86
2022/10/23 04:00:59;;;;;;;1.40;1.30;;;8.70;99.90;;;;;;5064975;28;20586;-86
2022/10/23 04:03:25;;;;;;;1.23;1.13;;;8.70;99.90;;;;;;5068380;28;20247;-86
2022/10/23 04:05:52;;;;;;;2.00;1.52;;;8.60;99.90;;;;;;5065068;28;20248;-87
2022/10/23 04:08:19;;;;;;;1.40;1.23;;;8.60;99.90;;;;;;5073781;28;20228;-87
2022/10/23 04:10:47;;;;;;;2.60;1.17;;;8.60;99.90;;;;;;5065599;28;20208;-86
2022/10/23 04:13:14;;;;;;;2.17;1.38;;;8.50;99.90;;;;;;5054510;28;20288;-88
2022/10/23 04:15:47;;;;;;;1.90;1.20;;;8.50;99.90;;;;;;5066308;28;20682;-86
2022/10/23 04:18:22;;;;;;;2.45;1.20;;;8.50;99.90;;;;;;5068312;28;20236;-86
2022/10/23 04:20:49;;;;;;;2.40;1.20;;;8.60;99.90;;;;;;5070802;28;20227;-87
2022/10/23 04:23:17;;;;;;;1.65;1.20;;;8.60;99.90;;;;;;5073300;28;20215;-86
2022/10/23 04:25:43;;;;;;;2.35;1.30;;;8.60;99.90;;;;;;5065082;28;20269;-86
2022/10/23 04:28:12;;;;;;;3.08;1.25;;;8.60;99.90;;;;;;5066790;28;20205;-87
2022/10/23 04:30:40;;;;;;;1.80;1.05;;;8.60;99.90;;;;;;5068893;28;20297;-87
2022/10/23 04:33:10;;;;;;;2.60;1.15;;;8.60;99.90;;;;;;5068091;28;20280;-86
2022/10/23 04:35:37;;;;;;;2.00;1.30;;;8.70;99.90;;;;;;5066483;28;20293;-86
2022/10/23 04:38:04;;;;;;;3.28;1.10;;;8.70;99.90;;;;;;5063711;28;20300;-87
2022/10/23 04:40:31;;;;;;;1.13;1.00;;;8.70;99.90;;;;;;5072113;28;20231;-87
2022/10/23 04:42:58;;;;;;;1.10;1.00;;;8.60;99.90;;;;;;5066982;28;20288;-87
2022/10/23 04:45:29;;;;;;;2.25;1.27;;;8.60;99.90;;;;;;5068649;28;20280;-86
2022/10/23 04:47:56;;;;;;;1.10;1.02;;;8.70;99.90;;;;;;5069884;28;20562;-87
2022/10/23 04:50:24;;;;;;;1.10;1.00;;;8.70;99.90;;;;;;5063429;28;20572;-87
2022/10/23 04:52:54;;;;;;;1.17;1.08;;;8.70;99.90;;;;;;5071480;28;20200;-87
2022/10/23 04:55:24;;;;;;;2.25;1.20;;;8.70;99.90;;;;;;5063074;28;20190;-87
2022/10/23 04:57:51;;;;;;;1.48;1.08;;;8.80;99.90;;;;;;5063637;28;20208;-86
2022/10/23 05:00:18;;;;;;;1.08;1.02;;;8.80;99.90;;;;;;5053115;28;20276;-88
2022/10/23 05:02:48;;;;;;;2.88;1.00;;;8.80;99.90;;;;;;5066920;28;20604;-86
2022/10/23 05:05:15;;;;;;;2.00;1.10;;;8.80;99.90;;;;;;5068294;28;20217;-86
2022/10/23 05:07:42;;;;;;;1.88;1.20;;;8.90;99.90;;;;;;5070197;28;20642;-86
2022/10/23 05:10:09;;;;;;;1.92;0.98;;;8.90;99.90;;;;;;5066330;28;20729;-86
2022/10/23 05:12:36;;;;;;;1.50;1.30;;;8.80;99.90;;;;;;5067558;28;20216;-86
2022/10/23 05:15:10;;;;;;;1.08;1.00;;;8.80;99.90;;;;;;5058662;28;20552;-85
2022/10/23 05:17:41;;;;;;;2.72;1.08;;;8.70;99.90;;;;;;5065784;28;20571;-86
2022/10/23 05:20:17;;;;;;;1.73;1.15;;;8.70;99.90;;;;;;5059042;28;20194;-86
2022/10/23 05:22:55;;;;;;;1.45;1.20;;;8.70;99.90;;;;;;5066534;28;20225;-86
2022/10/23 05:25:22;;;;;;;1.55;1.08;;;8.70;99.90;;;;;;5061367;28;20283;-86
2022/10/23 05:27:58;;;;;;;1.15;1.13;;;8.70;99.90;;;;;;5061331;28;20281;-87
2022/10/23 05:30:25;;;;;;;1.30;1.20;;;8.70;99.90;;;;;;5069728;28;20308;-87
2022/10/23 05:32:52;;;;;;;2.15;1.38;;;8.70;99.90;;;;;;5067628;28;20480;-87
2022/10/23 05:35:23;;;;;;;1.23;1.13;;;8.70;99.90;;;;;;5065196;28;20289;-87
2022/10/23 05:37:53;;;;;;;1.67;1.50;;;8.60;99.90;;;;;;5069236;28;20284;-86
2022/10/23 05:40:20;;;;;;;1.73;1.33;;;8.60;99.90;;;;;;5073341;28;20200;-87
2022/10/23 05:42:58;;;;;;;3.30;1.20;;;8.70;99.90;;;;;;5069195;28;20249;-86
2022/10/23 05:45:40;;;;;;;3.55;1.40;;;8.80;99.90;;;;;;5065238;28;20212;-86
2022/10/23 05:48:10;;;;;;;2.50;1.30;;;8.80;99.90;;;;;;5068970;28;20301;-86
2022/10/23 05:50:38;;;;;;;3.15;1.23;;;8.80;99.90;;;;;;5068031;28;20201;-87
2022/10/23 05:53:10;;;;;;;2.78;1.20;;;8.70;99.90;;;;;;5066947;28;20231;-86
2022/10/23 05:55:40;;;;;;;1.45;1.30;;;8.80;99.90;;;;;;5072962;28;20216;-88
2022/10/23 05:58:07;;;;;;;1.52;1.38;;;8.80;99.90;;;;;;5069906;28;20350;-87
2022/10/23 06:00:34;;;;;;;2.25;1.30;;;8.80;99.90;;;;;;5062980;28;20329;-87
2022/10/23 06:03:16;;;;;;;4.28;1.10;;;8.90;99.90;;;;;;5067529;28;20252;-86
2022/10/23 06:05:59;;;;;;;1.20;1.10;;;8.80;99.90;;;;;;5074818;28;20296;-86
2022/10/23 06:08:26;;;;;;;1.50;1.35;;;8.90;99.90;;;;;;5066384;28;20277;-86
2022/10/23 06:11:08;;;;;;;2.70;1.25;;;8.90;99.90;;;;;;5071225;28;20296;-86
2022/10/23 06:13:35;;;;;;;1.85;1.25;;;8.90;99.90;;;;;;5065134;28;20656;-87
2022/10/23 06:16:09;;;;;;;1.50;1.30;;;8.90;99.90;;;;;;5062820;28;20619;-87
2022/10/23 06:18:47;;;;;;;1.20;1.10;;;8.90;99.90;;;;;;5061469;28;20263;-85
2022/10/23 06:21:17;;;;;;;2.45;1.30;;;8.90;99.90;;;;;;5071610;28;20206;-85
2022/10/23 06:23:52;;;;;;;3.08;1.40;;;8.80;99.90;;;;;;5063282;28;20527;-85
2022/10/23 06:26:19;;;;;;;3.08;1.30;;;8.80;99.90;;;;;;5067251;28;20272;-86
2022/10/23 06:28:46;;;;;;;2.50;1.45;;;8.80;99.90;;;;;;5066861;28;20235;-86
2022/10/23 06:31:18;;;;;;;1.45;1.35;;;8.90;99.90;;;;;;5065723;28;20291;-85
2022/10/23 06:34:04;;;;;;;1.50;1.10;;;9.00;99.90;;;;;;5065455;28;20253;-86
2022/10/23 06:36:59;;;;;;;1.20;1.10;;;9.00;99.90;;;;;;5070048;28;20215;-86
2022/10/23 06:43:27;;;;;;;1.90;1.25;;;9.20;99.90;;;;;;5070434;28;20313;-85
2022/10/23 06:46:22;;;;;;;1.80;1.20;;;9.40;99.90;;;;;;5074570;28;20224;-85
2022/10/23 06:49:16;;;;;;;3.10;1.40;;;9.50;99.90;;;;;;5073480;28;20221;-85
2022/10/23 06:52:11;;;;;;;5.15;1.40;;;9.50;99.90;;;;;;5075795;28;20301;-85
2022/10/23 06:54:46;;;;;;;2.35;1.40;;;9.50;99.90;;;;;;5078798;28;20257;-85
2022/10/23 06:57:22;;;;;;;2.25;1.35;;;9.50;99.90;;;;;;5084557;28;20239;-85
2022/10/23 06:59:58;;;;;;;1.98;1.48;;;9.70;99.90;;;;;;5071882;28;20602;-85
2022/10/23 07:02:25;;;;;;;2.67;1.77;;;9.80;99.90;;;;;;5062887;28;20312;-85
2022/10/23 07:04:52;;;;;;;3.30;1.42;;;9.90;99.90;;;;;;5072775;28;20305;-86
2022/10/23 07:07:47;;;;;;;2.55;1.60;;;10.10;99.90;;;;;;5074015;28;20335;-85
2022/10/23 07:10:14;;;;;;;3.25;2.17;;;10.10;99.90;;;;;;5067881;28;20217;-86
2022/10/23 07:12:47;;;;;;;2.70;2.20;;;10.20;99.90;;;;;;5069282;28;20205;-85
2022/10/23 07:15:28;;;;;;;2.92;1.80;;;10.30;99.90;;;;;;5063414;28;20599;-85
2022/10/23 07:17:56;;;;;;;2.13;1.90;;;10.50;99.90;;;;;;5066633;28;20277;-85
2022/10/23 07:20:23;;;;;;;2.80;1.65;;;10.70;99.90;;;;;;5063915;28;20288;-86
2022/10/23 07:22:56;;;;;;;2.08;1.40;;;10.80;99.90;;;;;;5073409;28;20296;-86
2022/10/23 07:25:23;;;;;;;2.35;1.73;;;11.00;99.90;;;;;;5072236;28;20193;-87
2022/10/23 07:27:54;;;;;;;1.85;1.55;;;11.10;99.70;;;;;;5079002;28;20624;-87
2022/10/23 07:30:21;;;;;;;1.67;1.40;;;11.20;99.00;;;;;;5078612;28;20213;-87
2022/10/23 07:36:11;;;;;;;1.45;1.35;;;11.60;97.70;;;;;;5083972;28;20157;-86
2022/10/23 07:42:01;;;;;;;3.67;1.40;;;11.80;97.10;;;;;;5069088;28;20212;-87
2022/10/23 07:51:22;;;;;;;2.00;1.20;;;11.90;97.40;;;;;;5076339;28;20228;-86
2022/10/23 07:53:58;;;;;;;1.95;1.60;;;11.90;98.20;;;;;;5073200;28;20225;-88
2022/10/23 07:56:29;;;;;;;1.58;1.40;;;11.90;98.40;;;;;;5069910;28;20312;-90
2022/10/23 07:58:57;;;;;;;2.47;1.60;;;12.00;98.40;;;;;;5074300;28;20558;-87
2022/10/23 08:01:31;;;;;;;1.85;1.50;;;12.10;98.20;;;;;;5073369;28;20721;-91
2022/10/23 08:04:05;;;;;;;2.40;1.92;;;12.10;98.70;;;;;;5072800;28;20327;-86
2022/10/23 08:06:34;;;;;;;6.38;2.00;;;12.20;98.30;;;;;;5071151;28;20300;-87
2022/10/23 08:09:01;;;;;;;2.00;1.50;;;12.40;96.70;;;;;;5074951;28;20232;-88
2022/10/23 08:14:51;;;;;;;2.42;1.35;;;12.40;95.50;;;;;;5071302;28;20196;-88
2022/10/23 08:17:22;;;;;;;1.30;1.20;;;12.60;95.60;;;;;;5075003;28;20211;-88
2022/10/23 08:19:49;;;;;;;1.90;1.50;;;12.80;95.10;;;;;;5073730;28;20240;-89
2022/10/23 08:22:16;;;;;;;4.65;1.30;;;13.00;94.80;;;;;;5061914;28;20217;-89
2022/10/23 08:24:43;;;;;;;1.75;1.40;;;13.20;93.90;;;;;;5069249;28;20200;-89
2022/10/23 08:27:10;;;;;;;1.90;1.40;;;13.50;93.00;;;;;;5068129;28;20284;-89
2022/10/23 08:29:40;;;;;;;1.88;1.15;;;13.80;92.80;;;;;;5062776;28;20201;-89
2022/10/23 08:32:08;;;;;;;2.83;1.35;;;14.10;92.20;;;;;;5050140;28;20305;-88
2022/10/23 08:34:36;;;;;;;1.73;1.27;;;14.40;91.40;;;;;;5048241;28;20190;-88
2022/10/23 08:37:03;;;;;;;2.35;1.25;;;14.70;87.60;;;;;;5048255;28;20684;-88
2022/10/23 08:39:30;;;;;;;1.23;1.10;;;14.60;84.90;;;;;;5041996;28;20194;-87
2022/10/23 08:41:57;;;;;;;1.40;1.30;;;15.00;84.00;;;;;;5039409;28;20281;-89
2022/10/23 08:44:31;;;;;;;2.83;1.02;;;15.50;78.50;;;;;;5047164;28;20281;-87
2022/10/23 08:47:04;;;;;;;2.45;1.30;;;15.70;77.80;;;;;;5051347;28;20262;-88
2022/10/23 08:49:45;;;;;;;2.58;1.52;;;15.60;74.20;;;;;;5046731;28;20208;-89
2022/10/23 08:52:16;;;;;;;2.80;1.20;;;15.80;77.80;;;;;;5036685;28;20206;-90
2022/10/23 08:54:52;;;;;;;1.45;1.20;;;16.10;70.30;;;;;;5047901;28;20327;-89
2022/10/23 08:57:34;;;;;;;1.50;1.40;;;16.40;64.90;;;;;;5043015;28;20208;-92
2022/10/23 09:00:04;;;;;;;2.05;1.67;;;16.80;65.10;;;;;;5046013;28;20202;-90
2022/10/23 09:02:39;;;;;;;1.48;1.17;;;17.50;63.80;;;;;;5049063;28;20562;-94
2022/10/23 09:05:15;;;;;;;1.40;1.30;;;18.60;54.60;;;;;;5044657;28;20221;-87
2022/10/23 09:07:59;;;;;;;2.35;1.30;;;19.20;44.60;;;;;;5045198;28;20202;-87
2022/10/23 09:10:51;;;;;;;1.65;1.55;;;19.30;41.90;;;;;;5040267;28;20233;-87
2022/10/23 09:13:51;;;;;;;1.60;1.50;;;19.70;37.80;;;;;;5046702;28;20546;-87
2022/10/23 09:16:30;;;;;;;4.53;1.40;;;19.90;35.70;;;;;;5048452;28;20285;-88
2022/10/23 09:18:58;;;;;;;2.42;1.40;;;20.00;38.10;;;;;;5049793;28;20229;-88
2022/10/23 09:21:28;;;;;;;4.55;1.73;;;19.80;37.30;;;;;;5052510;28;20261;-87
2022/10/23 09:23:56;;;;;;;2.22;1.40;;;19.30;35.10;;;;;;5051183;28;20246;-88
2022/10/23 09:26:23;;;;;;;1.98;1.63;;;19.10;35.50;;;;;;5055091;28;20297;-87
2022/10/23 09:28:51;;;;;;;2.92;1.48;;;18.90;38.10;;;;;;5054577;28;20232;-87
2022/10/23 09:31:19;;;;;;;1.45;1.20;;;18.50;38.20;;;;;;5067463;28;20292;-87
2022/10/23 09:33:57;;;;;;;1.73;1.50;;;19.10;39.30;;;;;;5073007;28;20235;-87
2022/10/23 09:36:24;;;;;;;2.28;1.67;;;19.50;35.60;;;;;;5068803;28;20243;-89
2022/10/23 09:38:55;;;;;;;1.33;1.23;;;19.10;36.10;;;;;;5070614;28;20809;-90
2022/10/23 09:41:26;;;;;;;1.75;1.23;;;19.10;38.60;;;;;;5071613;28;20304;-87
2022/10/23 09:44:19;;;;;;;1.60;1.50;;;20.00;36.00;;;;;;5074521;28;20701;-84
2022/10/23 09:46:49;;;;;;;4.03;1.20;;;20.80;32.70;;;;;;5073886;28;20197;-84
2022/10/23 09:49:18;;;;;;;1.50;1.40;;;21.60;31.90;;;;;;5067428;28;20296;-87
2022/10/23 09:52:03;;;;;;;3.45;2.75;;;22.00;29.40;;;;;;5070701;28;20763;-86
2022/10/23 09:54:33;;;;;;;1.98;1.77;;;22.40;27.90;;;;;;5064038;28;20193;-87
2022/10/23 09:57:05;;;;;;;2.38;2.17;;;22.80;27.10;;;;;;5062660;28;20287;-87
2022/10/23 09:59:33;;;;;;;2.40;1.75;;;22.70;25.50;;;;;;5067687;28;20243;-87
2022/10/23 10:02:03;;;;;;;2.75;1.50;;;22.70;25.60;;;;;;5066901;28;20208;-92
2022/10/23 10:04:39;;;;;;;2.58;1.63;;;23.20;23.00;;;;;;5068288;28;20217;-89
2022/10/23 10:07:19;;;;;;;2.38;1.50;;;23.20;24.70;;;;;;5070380;28;20715;-88
2022/10/23 10:09:47;;;;;;;15.02;13.52;;;23.80;22.80;;;;;;5071541;28;20223;-89
2022/10/23 10:12:26;;;;;;;2.10;1.33;;;24.20;23.80;;;;;;5068015;28;20682;-89
2022/10/23 10:15:01;;;;;;;5.45;4.05;;;24.20;22.90;;;;;;5072481;28;20211;-90
2022/10/23 10:17:37;;;;;;;2.05;1.40;;;24.60;22.20;;;;;;5068299;28;20212;-90
2022/10/23 10:20:36;;;;;;;1.88;1.45;;;23.90;22.80;;;;;;5058043;28;20633;-89
2022/10/23 10:23:10;;;;;;;6.25;1.30;;;23.80;24.90;;;;;;5002833;28;20721;-91
2022/10/23 10:25:46;;;;;;;1.63;1.40;;;24.20;23.00;;;;;;5009025;28;20352;-89
2022/10/23 10:28:30;;;;;;;3.15;1.45;;;24.40;23.40;;;;;;5003648;28;20202;-88
2022/10/23 10:31:08;;;;;;;1.95;1.38;;;24.40;23.90;;;;;;5012164;28;20215;-88
2022/10/23 10:33:43;;;;;;;2.20;1.60;;;24.70;22.00;;;;;;5007594;28;20298;-88
2022/10/23 10:36:31;;;;;;;3.42;1.30;;;24.10;22.40;;;;;;5005572;28;20213;-87
2022/10/23 10:39:01;;;;;;;3.05;1.40;;;23.80;23.50;;;;;;5006720;28;20203;-88
2022/10/23 10:41:55;;;;;;;1.40;1.30;;;23.10;26.00;;;;;;5004340;28;20217;-88
2022/10/23 10:44:38;;;;;;;1.58;1.48;;;23.10;27.00;;;;;;5003311;28;20294;-87
2022/10/23 10:47:13;;;;;;;2.85;1.60;;;23.20;28.20;;;;;;5010803;28;20321;-88
2022/10/23 10:49:46;;;;;;;3.67;2.00;;;23.10;27.10;;;;;;5006954;28;20194;-87
2022/10/23 10:52:18;;;;;;;3.97;2.10;;;22.90;28.20;;;;;;5003266;28;20298;-88
2022/10/23 10:54:56;;;;;;;2.40;1.50;;;22.70;28.30;;;;;;5004482;28;20290;-88
2022/10/23 10:57:32;;;;;;;2.13;1.83;;;22.60;28.40;;;;;;5004611;28;20269;-87
2022/10/23 11:00:05;;;;;;;1.50;1.40;;;22.80;28.00;;;;;;5032711;28;20225;-84
2022/10/23 11:02:40;;;;;;;3.03;1.40;;;22.80;27.90;;;;;;5063851;28;20201;-83
2022/10/23 11:05:18;;;;;;;2.65;1.50;;;22.50;29.00;;;;;;5066337;28;20228;-85
2022/10/23 11:07:55;;;;;;;1.70;1.60;;;22.30;29.50;;;;;;5066586;28;20584;-88
2022/10/23 11:10:22;;;;;;;1.90;1.63;;;22.20;29.30;;;;;;5061980;28;20198;-87
2022/10/23 11:12:52;;;;;;;1.40;1.30;;;22.10;30.30;;;;;;5070455;28;20826;-88
2022/10/23 11:15:26;;;;;;;1.35;1.00;;;22.10;28.70;;;;;;5072099;28;20296;-85
2022/10/23 11:17:58;;;;;;;1.70;1.60;;;21.10;31.60;;;;;;5081312;28;20206;-87
2022/10/23 11:20:53;;;;;;;1.02;1.02;;;21.10;33.00;;;;;;5069173;28;20602;-86
2022/10/23 11:23:48;;;;;;;1.30;1.20;;;21.10;33.00;;;;;;5077757;28;20252;-87
2022/10/23 11:26:34;;;;;;;2.53;1.27;;;20.90;32.80;;;;;;5073939;28;20197;-87
2022/10/23 11:29:34;;;;;;;2.50;1.10;;;21.00;32.90;;;;;;5072785;28;20232;-86
2022/10/23 11:32:21;;;;;;;1.83;1.42;;;21.10;33.00;;;;;;5075374;28;21205;-84
2022/10/23 11:35:23;;;;;;;1.23;1.13;;;21.10;33.00;;;;;;5072448;28;20237;-86
2022/10/23 11:37:59;;;;;;;2.60;1.60;;;21.20;33.10;;;;;;5068127;28;20272;-88
2022/10/23 11:40:27;;;;;;;1.40;1.30;;;21.30;33.20;;;;;;5073352;28;20614;-87
2022/10/23 11:43:04;;;;;;;1.27;1.20;;;21.30;34.30;;;;;;5074648;28;20709;-87
2022/10/23 11:45:34;;;;;;;1.60;1.50;;;21.20;33.10;;;;;;5070044;28;20696;-87
2022/10/23 11:48:22;;;;;;;3.30;1.67;;;21.30;33.20;;;;;;5068663;28;20222;-87
2022/10/23 11:50:55;;;;;;;1.60;1.38;;;21.30;33.20;;;;;;5072296;28;20281;-88
2022/10/23 11:53:36;;;;;;;1.40;1.30;;;21.20;33.10;;;;;;5067743;28;20290;-87
2022/10/23 11:56:23;;;;;;;2.47;1.50;;;21.20;33.10;;;;;;5068020;28;20284;-90
2022/10/23 11:58:51;;;;;;;3.10;1.20;;;21.20;33.10;;;;;;5073530;28;20224;-87
2022/10/23 12:01:30;;;;;;;1.42;1.20;;;21.20;33.10;;;;;;5077373;28;20233;-89
2022/10/23 12:04:02;;;;;;;1.63;1.40;;;21.10;33.00;;;;;;5082351;28;20280;-87
2022/10/23 12:06:32;;;;;;;3.20;1.30;;;21.20;33.80;;;;;;5081381;28;20255;-85
2022/10/23 12:09:08;;;;;;;1.65;1.10;;;21.10;34.50;;;;;;5076304;28;20273;-85
2022/10/23 12:11:44;;;;;;;2.42;1.27;;;21.10;36.10;;;;;;5073764;28;20243;-86
2022/10/23 12:14:29;;;;;;;1.50;1.27;;;21.00;35.90;;;;;;5082011;28;20269;-86
2022/10/23 12:16:59;;;;;;;1.40;1.30;;;21.20;35.90;;;;;;5081703;28;20293;-85
2022/10/23 12:19:41;;;;;;;1.20;1.10;;;21.30;35.60;;;;;;5075059;28;20220;-85
2022/10/23 12:22:11;;;;;;;1.60;1.20;;;21.30;36.30;;;;;;5072163;28;20193;-85
2022/10/23 12:24:57;;;;;;;4.47;1.23;;;21.20;36.40;;;;;;5073017;28;20844;-86
2022/10/23 12:27:38;;;;;;;4.80;1.20;;;21.20;36.10;;;;;;5077212;28;20210;-86
2022/10/23 12:30:24;;;;;;;2.30;1.40;;;21.20;36.60;;;;;;5076320;28;20198;-86
2022/10/23 12:33:11;;;;;;;2.30;1.30;;;21.10;38.00;;;;;;5077960;28;20226;-86
2022/10/23 12:36:04;;;;;;;2.40;1.33;;;21.00;38.30;;;;;;5075406;28;20251;-87
2022/10/23 12:38:32;;;;;;;1.75;1.60;;;20.90;39.40;;;;;;5074648;28;20532;-86
2022/10/23 12:41:19;;;;;;;2.53;1.30;;;20.90;40.00;;;;;;5072377;28;20747;-86
2022/10/23 12:44:00;;;;;;;3.03;1.33;;;20.80;42.20;;;;;;5071272;28;20315;-86
2022/10/23 12:46:34;;;;;;;2.00;1.50;;;20.80;43.00;;;;;;5070531;28;20270;-85
2022/10/23 12:49:14;;;;;;;3.38;1.50;;;20.80;42.40;;;;;;5070539;28;20232;-86
2022/10/23 12:51:42;;;;;;;1.50;1.40;;;20.90;41.60;;;;;;5079675;28;20251;-86
2022/10/23 12:54:16;;;;;;;2.65;1.40;;;21.00;40.30;;;;;;5074393;28;20233;-86
2022/10/23 12:56:44;;;;;;;2.17;1.58;;;21.10;40.40;;;;;;5076360;28;20264;-86
2022/10/23 12:59:16;;;;;;;1.52;1.38;;;21.10;40.10;;;;;;5075197;28;20274;-87
2022/10/23 13:01:43;;;;;;;1.50;1.40;;;21.10;40.80;;;;;;5062994;28;20300;-86
2022/10/23 13:04:21;;;;;;;2.63;1.60;;;21.20;41.50;;;;;;5081387;28;20453;-86
2022/10/23 13:06:55;;;;;;;1.65;1.45;;;21.30;40.40;;;;;;5073707;28;20221;-86
2022/10/23 13:09:28;;;;;;;1.30;1.20;;;21.30;40.00;;;;;;5088218;28;20231;-86
2022/10/23 13:11:56;;;;;;;1.55;1.30;;;21.40;38.80;;;;;;5078945;28;20233;-86
2022/10/23 13:15:01;;;;;;;1.20;1.10;;;21.40;39.10;;;;;;5070026;28;20722;-86
2022/10/23 13:17:37;;;;;;;1.38;1.27;;;21.40;38.20;;;;;;5068711;28;20193;-85
2022/10/23 13:20:19;;;;;;;1.55;1.40;;;21.30;38.80;;;;;;5071629;28;20197;-86
2022/10/23 13:22:49;;;;;;;3.50;1.20;;;21.20;40.20;;;;;;5068072;28;20285;-86
2022/10/23 13:25:24;;;;;;;4.80;1.30;;;21.20;40.70;;;;;;5084196;28;20280;-87
2022/10/23 13:28:10;;;;;;;5.20;1.40;;;21.00;40.30;;;;;;5089192;28;20225;-86
2022/10/23 13:30:41;;;;;;;2.63;1.15;;;20.90;41.10;;;;;;5079633;28;20209;-85
2022/10/23 13:33:15;;;;;;;2.63;1.50;;;21.00;41.80;;;;;;5085362;28;20233;-87
2022/10/23 13:35:57;;;;;;;4.03;1.10;;;21.00;41.80;;;;;;5086045;28;20232;-86
2022/10/23 13:38:33;;;;;;;1.27;1.17;;;20.90;43.60;;;;;;5084328;28;20212;-88
2022/10/23 13:41:03;;;;;;;4.35;1.58;;;20.90;44.60;;;;;;5087040;28;20229;-88
2022/10/23 13:43:34;;;;;;;4.43;1.30;;;21.00;44.60;;;;;;5073851;28;20260;-87
2022/10/23 13:46:02;;;;;;;2.78;1.60;;;20.90;44.60;;;;;;5077347;28;20229;-86
2022/10/23 13:48:29;;;;;;;1.63;1.35;;;20.90;45.30;;;;;;5077019;28;20285;-86
2022/10/23 13:51:12;;;;;;;1.38;1.25;;;20.80;48.10;;;;;;5080279;28;20356;-86
2022/10/23 13:53:49;;;;;;;1.50;1.40;;;20.80;48.70;;;;;;5073984;28;20652;-87
2022/10/23 13:56:28;;;;;;;1.85;1.70;;;20.70;50.00;;;;;;5078882;28;20229;-86
2022/10/23 13:58:55;;;;;;;4.40;1.50;;;20.70;51.00;;;;;;5079699;28;20244;-86
2022/10/23 14:01:26;;;;;;;1.48;1.38;;;20.60;52.70;;;;;;5073497;28;20228;-88
2022/10/23 14:03:54;;;;;;;1.70;1.35;;;20.60;53.10;;;;;;5080200;28;20248;-87
2022/10/23 14:06:28;;;;;;;2.53;1.50;;;20.60;52.70;;;;;;5079732;28;20281;-86
2022/10/23 14:08:57;;;;;;;3.97;1.75;;;20.50;53.60;;;;;;5082437;28;20284;-87